Aérodrome :
LOGIN :

S'inscrire | Disclaimer

   EN    FR    IT 

 










Légende :    VFR   VFR Marginal   IFR   IFR Intensif   IFR Très Intensif
Visi : 
Plafond : 
>= 8 km
>= 3000ft
5 à 8 km
1000 à 3000 ft
1500m à 5 km
500 à 1000 ft
800 à 1500m
200 à 500 ft
< 800m
< 200 ft
Symboles :   Orages  Brouillard  Fortes neiges  Fortes précipitations  Vent > 20 kt
SIGMETs :   Divers  Orages  Givrage  Turbulence  Onde Orograph.  Cendres Volcan.






- Altitude de l'aérodrome : 1041 ft
- Code IATA : XMF


LFSM - Montbéliard-Courcelles

DERNIER METAR :
  • 231400Z AUTO 00000KT 9999 BKN039 BKN045 OVC054 06/01 Q0994

METARs EXPIRÉS :
  • 231330Z AUTO 04003KT 9999 BKN047 OVC064 06/01 Q0994
  • 231300Z AUTO 07003KT 040V100 9999 OVC050 06/01 Q0995
  • 231230Z AUTO 04004KT 9999 FEW014 BKN066 BKN080 05/01 Q0995
  • 231200Z AUTO VRB02KT CAVOK 06/01 Q0996
  • 231130Z AUTO 05003KT CAVOK 05/01 Q0997
  • 231100Z AUTO 09005KT CAVOK 05/01 Q0997

TAF N/A



MET'MAP, la Météo Aéronautique d'un coup d'oeil ! - Copyright ORBIFLY Décembre 2007 - Disclaimer

ORBIFLY MET'MAP TEAM :

Programmation & Développement : Alexandra Zaïnal
Sur une idée originale de : Baudouin d'Aumeries
Assistance à la programmation : Marc-Olivier Méhu
Soutien technique & logistique : Manuel Goepfert

Contact : metmap@orbifly.com




SOURCES & CREDITS :

   NOAA